首页
METAR-TAF:

METAR-TAF

机场 :

Linton-on-Ouse, 英格兰

纬度: 54-03N, 经度: 001-15W, 海拔: 16米

当前天气观测

该预报发布于1小时和2分钟前的14:50 UTC
风速11节,风向北转西北
温度 11°C
湿度 100%
气压 996 hPa
能見度: 2800
毛毛雨

METAR: EGXU 231450Z AUTO 33011KT 2800 DZ BKN004/// BKN011/// 11/11 Q0996

时间: 16:52 (15:52 UTC)

预报

该预报发布于7小时和39分钟前的08:13 UTC
预报有效从23日的 09点(UTC)到 23日的 18点(UTC)
风速9节,风向
能见度10公里或以上
少量云层高于1000英尺
多云层高于2500英尺
小雨
短暂存在
从 23日的 09点(UTC)到 23日的 18点(UTC)
能見度: 4000
多云层高于1000英尺
几率 40% :
短暂存在
从 23日的 09点(UTC)到 23日的 18点(UTC)
能見度: 3000
散云层高于400英尺
多云层高于800英尺
大雨, 雨, 毛毛雨

TAF: EGXU 230813Z 2309/2318 35009KT 9999 -RA FEW010 BKN025 TEMPO 2309/2318 4000 RA BKN010 PROB40 TEMPO 2309/2318 3000 +RA RADZ SCT004 BKN008

超过4000个机场的气象观测和天气预报(METAR&TAF报告)。

可查询的气象台以黄色和红色小点在地图上表示。

将鼠标移到小点上方,可查看气象台名称。

然后点击查看天气观测和预报。

如需切换地图:点击带黑十字的绿色按钮放大地图;点击带横线的绿色按钮缩小地图;或者点击绿色箭头查看邻近地区的地图。


METAR-TAF: